Observations
| Time | Sensor | AQI | SAQ | Temp °C | Hum % | Pres Pa | CO μg/m³ | H₂S μg/m³ | NO μg/m³ | NO₂ μg/m³ | O₃ μg/m³ | SO₂ μg/m³ | CO₂e PPM | VOC PPM | PM1 μg/m³ | PM2.5 μg/m³ | PM4 μg/m³ | PM10 μg/m³ | TPS µm |
|---|---|---|---|---|---|---|---|---|---|---|---|---|---|---|---|---|---|---|---|
| Wednesday 12 August 2026 | |||||||||||||||||||
| 21:54 | Trim Patrick St | 3 | 25.6 | 51 | 69,193 | 0 | 19.07 | 0.83 | 43.93 | 47.35 | 10.63 | 4.57 | 10.93 | 12.02 | |||||
| 21:54 | Trim Market St | 3 | 26.1 | 48 | 58,580 | 0 | 3.84 | 0.82 | 47.61 | 44.32 | 0 | 1.43 | 4.58 | 6.02 | |||||
| 21:53 | Trim Patrick St | 3 | 25.6 | 50 | 69,202 | 0 | 19.04 | 0.84 | 28.53 | 60.06 | 10.68 | 5.43 | 10.96 | 12.06 | |||||
| 21:53 | Trim Market St | 3 | 26.1 | 48 | 58,681 | 0 | 1.98 | 0.8 | 24.14 | 62.35 | 0 | 2.14 | 4.07 | 5.26 | |||||
| 21:52 | Trim Patrick St | 3 | 25.7 | 51 | 69,214 | 0 | 19.04 | 0.81 | 37.32 | 52.93 | 11.3 | 4.57 | 9.42 | 10.36 | |||||
| 21:52 | Trim Market St | 3 | 26.1 | 48 | 59,024 | 0 | 1.71 | 0.8 | 21.39 | 66.19 | 0 | 2.14 | 4.6 | 5.26 | |||||
| 21:51 | Trim Patrick St | 3 | 25.7 | 50 | 69,212 | 0 | 15.69 | 0.83 | 22.04 | 58.39 | 11.32 | 5.43 | 10.19 | 11.21 | |||||
| 21:51 | Trim Market St | 3 | 26.2 | 48 | 59,215 | 0 | 3.17 | 0.8 | 22.63 | 71.14 | 0 | 1.43 | 4.08 | 6.01 | |||||
| 21:50 | Trim Patrick St | 3 | 25.7 | 50 | 69,208 | 0 | 16.81 | 0.84 | 24.25 | 56.23 | 11.17 | 2.86 | 7.91 | 8.7 | |||||
| 21:49 | Trim Patrick St | 3 | 25.8 | 50 | 69,197 | 0 | 19.22 | 0.85 | 34.23 | 57.23 | 11.36 | 3.71 | 9.47 | 10.42 | |||||
| 21:49 | Trim Market St | 3 | 26.2 | 48 | 59,593 | 0 | 2.24 | 0.81 | 19.67 | 71.99 | 0 | 0 | 3.06 | 3.37 | |||||
| 21:48 | Trim Patrick St | 3 | 25.8 | 50 | 69,183 | 0 | 17.81 | 0.85 | 23.13 | 60.44 | 11.71 | 4.57 | 9.47 | 10.41 | |||||
| 21:48 | Trim Market St | 3 | 26.3 | 48 | 59,741 | 0 | 2.58 | 0.79 | 23.18 | 64.74 | 0 | 2.14 | 3.58 | 4.49 | |||||
| 21:47 | Trim Patrick St | 3 | 25.9 | 49 | 69,193 | 0 | 17.12 | 0.86 | 34.79 | 50.7 | 11.05 | 4.57 | 10.3 | 11.33 | |||||
| 21:47 | Trim Market St | 3 | 26.3 | 48 | 60,078 | 0 | 2.9 | 0.81 | 28.19 | 60.55 | 0 | 2.14 | 4.62 | 6.01 | |||||
| 21:46 | Trim Patrick St | 3 | 25.9 | 50 | 69,177 | 0 | 16.69 | 0.85 | 30.08 | 52.82 | 11.03 | 5.43 | 10.24 | 11.26 | |||||
| 21:45 | Trim Patrick St | 3 | 25.9 | 50 | 69,189 | 0 | 16.43 | 0.84 | 25.39 | 58.95 | 11.66 | 2.86 | 7.96 | 8.76 | |||||
| 21:44 | Trim Patrick St | 3 | 26 | 49 | 69,175 | 0 | 17.38 | 0.82 | 28.25 | 56.12 | 11.62 | 5.43 | 10.27 | 11.3 | |||||
| 21:44 | Trim Market St | 3 | 26.4 | 48 | 60,521 | 0 | 1.67 | 0.78 | 23.78 | 62.35 | 0 | 2.14 | 5.15 | 6.77 | |||||
| 21:43 | Trim Patrick St | 3 | 26 | 49 | 69,187 | 0 | 16.39 | 0.81 | 19.8 | 60.35 | 11.48 | 4.57 | 11.05 | 12.15 | |||||